Time;durP1;ratioP1;P1;durP2;ratioP2;P2;SDS_P1;SDS_P2;PMS_P1;PMS_P2;Temp;Humidity;BMP_temperature;BMP_pressure;BME280_temperature;BME280_humidity;BME280_pressure;Samples;Min_cycle;Max_cycle;Signal;HPM_P1;HPM_P2
2023/01/21 00:01:15;;;;;;;54.78;15.68;;;-0.40;96.20;;;;;;4979958;28;20262;-93
2023/01/21 00:03:42;;;;;;;48.85;16.73;;;-0.40;96.80;;;;;;4979383;28;20054;-95
2023/01/21 00:06:10;;;;;;;53.08;17.40;;;-0.40;96.60;;;;;;4979908;28;20058;-94
2023/01/21 00:08:37;;;;;;;57.38;18.70;;;-0.40;96.30;;;;;;4971109;28;20050;-94
2023/01/21 00:11:09;;;;;;;52.03;15.98;;;-0.40;96.30;;;;;;4973070;28;20061;-93
2023/01/21 00:13:36;;;;;;;59.85;16.95;;;-0.50;96.50;;;;;;4971435;28;20054;-93
2023/01/21 00:16:04;;;;;;;57.90;16.40;;;-0.50;96.50;;;;;;4973957;28;20058;-93
2023/01/21 00:18:32;;;;;;;58.22;17.52;;;-0.50;96.70;;;;;;4973017;28;20459;-92
2023/01/21 00:21:00;;;;;;;52.67;15.90;;;-0.40;96.50;;;;;;4974654;28;20221;-94
2023/01/21 00:23:27;;;;;;;59.05;17.20;;;-0.50;96.30;;;;;;4979785;28;20050;-95
2023/01/21 00:25:59;;;;;;;47.58;16.13;;;-0.50;96.20;;;;;;4979962;28;20085;-94
2023/01/21 00:28:30;;;;;;;59.67;17.30;;;-0.50;96.40;;;;;;4977413;28;20061;-95
2023/01/21 00:31:02;;;;;;;57.78;16.38;;;-0.50;96.50;;;;;;4981221;28;20548;-95
2023/01/21 00:33:30;;;;;;;58.00;16.00;;;-0.50;96.40;;;;;;4982916;28;20051;-95
2023/01/21 00:36:06;;;;;;;53.78;17.00;;;-0.50;96.50;;;;;;4983221;28;20051;-94
2023/01/21 00:38:34;;;;;;;55.67;15.43;;;-0.50;96.60;;;;;;4979206;28;20121;-94
2023/01/21 00:41:06;;;;;;;60.90;16.75;;;-0.50;96.60;;;;;;4978956;28;20047;-94
2023/01/21 00:43:33;;;;;;;55.53;17.52;;;-0.50;96.70;;;;;;4985958;28;20042;-94
2023/01/21 00:46:00;;;;;;;54.47;16.73;;;-0.50;96.60;;;;;;4988320;28;20057;-94
2023/01/21 00:48:27;;;;;;;52.90;17.02;;;-0.50;97.00;;;;;;4982340;28;20788;-94
2023/01/21 00:50:57;;;;;;;53.20;16.88;;;-0.50;96.80;;;;;;4981687;28;20137;-94
2023/01/21 00:53:28;;;;;;;57.85;15.95;;;-0.50;96.80;;;;;;4998584;28;20051;-93
2023/01/21 00:56:02;;;;;;;51.63;16.25;;;-0.50;96.70;;;;;;4978074;28;20517;-92
2023/01/21 00:58:30;;;;;;;49.50;16.10;;;-0.50;97.00;;;;;;4977335;28;20081;-93
2023/01/21 01:01:14;;;;;;;54.42;15.85;;;-0.50;96.80;;;;;;4977268;28;20050;-93
2023/01/21 01:03:42;;;;;;;55.80;15.82;;;-0.50;96.90;;;;;;4978566;28;20077;-93
2023/01/21 01:06:13;;;;;;;54.47;15.43;;;-0.50;96.80;;;;;;4976081;28;20059;-93
2023/01/21 01:08:40;;;;;;;62.90;16.73;;;-0.50;96.90;;;;;;4976163;28;20090;-93
2023/01/21 01:11:08;;;;;;;59.35;18.15;;;-0.50;97.00;;;;;;4973726;28;20050;-93
2023/01/21 01:13:36;;;;;;;61.05;17.13;;;-0.50;97.00;;;;;;4969723;28;20077;-93
2023/01/21 01:16:04;;;;;;;44.08;15.52;;;-0.50;97.10;;;;;;4983138;28;20520;-93
2023/01/21 01:18:33;;;;;;;48.05;16.27;;;-0.50;96.90;;;;;;4968822;28;20054;-93
2023/01/21 01:21:01;;;;;;;59.95;16.92;;;-0.50;97.00;;;;;;4982511;28;20068;-93
2023/01/21 01:23:29;;;;;;;58.25;18.23;;;-0.50;97.10;;;;;;4980847;28;20075;-93
2023/01/21 01:26:06;;;;;;;52.85;16.38;;;-0.40;97.00;;;;;;4976091;28;20074;-93
2023/01/21 01:28:33;;;;;;;61.22;17.98;;;-0.40;96.80;;;;;;4974925;28;20046;-93
2023/01/21 01:31:02;;;;;;;64.55;18.42;;;-0.40;96.90;;;;;;4974999;28;20141;-93
2023/01/21 01:33:29;;;;;;;64.88;19.00;;;-0.40;96.90;;;;;;4981380;28;20089;-94
2023/01/21 01:36:00;;;;;;;62.55;18.60;;;-0.40;96.80;;;;;;4980407;28;20078;-94
2023/01/21 01:38:27;;;;;;;75.30;18.27;;;-0.40;96.60;;;;;;4986687;28;20046;-94
2023/01/21 01:40:55;;;;;;;70.43;19.40;;;-0.40;96.80;;;;;;4979049;28;20065;-94
2023/01/21 01:43:24;;;;;;;62.85;17.40;;;-0.40;96.90;;;;;;4980685;28;20496;-94
2023/01/21 01:45:52;;;;;;;62.33;17.90;;;-0.40;96.90;;;;;;4979990;28;20138;-94
2023/01/21 01:48:30;;;;;;;60.70;17.38;;;-0.40;96.90;;;;;;4998702;28;20469;-94
2023/01/21 01:51:02;;;;;;;68.88;18.52;;;-0.40;97.20;;;;;;4994293;28;20058;-93
2023/01/21 01:53:31;;;;;;;70.45;18.83;;;-0.40;97.20;;;;;;4991035;28;20443;-94
2023/01/21 01:55:58;;;;;;;59.35;17.80;;;-0.40;96.80;;;;;;4984152;28;20056;-93
2023/01/21 01:58:27;;;;;;;63.55;18.50;;;-0.40;97.00;;;;;;4979159;28;20149;-93
2023/01/21 02:00:54;;;;;;;62.65;17.42;;;-0.40;97.00;;;;;;4980659;28;20050;-93
2023/01/21 02:06:07;;;;;;;64.65;19.38;;;-0.40;97.00;;;;;;4983598;28;20050;-93
2023/01/21 02:08:35;;;;;;;60.20;17.33;;;-0.40;96.80;;;;;;4976199;28;20051;-93
2023/01/21 02:11:09;;;;;;;62.20;17.77;;;-0.40;97.00;;;;;;4983732;28;20128;-94
2023/01/21 02:13:36;;;;;;;64.27;18.40;;;-0.40;97.10;;;;;;4980105;28;20052;-95
2023/01/21 02:16:24;;;;;;;61.78;16.95;;;-0.30;97.10;;;;;;4983879;28;20050;-95
2023/01/21 02:19:19;;;;;;;59.40;17.65;;;-0.30;96.80;;;;;;4972472;28;20138;-95
2023/01/21 02:22:07;;;;;;;60.43;18.37;;;-0.30;96.90;;;;;;4975306;28;20057;-95
2023/01/21 02:24:43;;;;;;;68.90;19.85;;;-0.30;96.90;;;;;;4977465;28;20472;-94
2023/01/21 02:27:49;;;;;;;64.20;17.83;;;-0.40;96.70;;;;;;4976594;28;20061;-94
2023/01/21 02:30:55;;;;;;;64.63;18.52;;;-0.40;96.90;;;;;;4975506;28;20064;-94
2023/01/21 02:33:22;;;;;;;;;;;-0.40;97.00;;;;;;4976875;28;20085;-93
2023/01/21 02:36:10;;;;;;;55.13;17.05;;;-0.40;97.10;;;;;;4979310;28;19926;-94
2023/01/21 02:38:42;;;;;;;63.58;17.58;;;-0.40;97.40;;;;;;4984520;28;20050;-95
2023/01/21 02:41:27;;;;;;;61.08;17.13;;;-0.40;97.20;;;;;;4976975;28;20499;-95
2023/01/21 02:44:17;;;;;;;57.08;18.17;;;-0.50;97.30;;;;;;4981821;28;20058;-95
2023/01/21 02:47:15;;;;;;;59.58;17.25;;;-0.40;97.60;;;;;;4979948;28;20463;-94
2023/01/21 02:50:05;;;;;;;59.78;18.30;;;-0.50;97.60;;;;;;5002210;28;20069;-92
2023/01/21 02:52:32;;;;;;;63.47;16.73;;;-0.50;97.70;;;;;;4997519;28;20127;-93
2023/01/21 02:55:01;;;;;;;63.65;17.42;;;-0.50;97.90;;;;;;4996261;28;20046;-92
2023/01/21 02:57:42;;;;;;;65.40;18.65;;;-0.60;98.10;;;;;;4990304;28;20074;-91
2023/01/21 03:00:16;;;;;;;56.25;17.38;;;-0.50;98.10;;;;;;4982260;28;20146;-92
2023/01/21 03:03:12;;;;;;;60.08;17.10;;;-0.50;98.10;;;;;;4980702;28;20133;-92
2023/01/21 03:05:58;;;;;;;50.80;16.42;;;-0.60;98.10;;;;;;4983332;28;20058;-92
2023/01/21 03:08:32;;;;;;;53.25;16.00;;;-0.60;98.50;;;;;;4996339;28;20062;-92
2023/01/21 03:11:08;;;;;;;;;;;-0.60;98.50;;;;;;4992534;28;20124;-91
2023/01/21 03:19:27;;;;;;;49.72;16.75;;;-0.60;98.60;;;;;;4995797;28;20070;-91
2023/01/21 03:21:57;;;;;;;63.00;19.17;;;-0.60;98.50;;;;;;4971434;28;20098;-96
2023/01/21 03:24:25;;;;;;;59.90;17.48;;;-0.60;98.70;;;;;;4979631;28;20143;-96
2023/01/21 03:26:56;;;;;;;59.13;17.25;;;-0.70;98.80;;;;;;4980642;28;20062;-94
2023/01/21 03:29:27;;;;;;;59.70;16.95;;;-0.60;98.90;;;;;;4976649;28;20113;-92
2023/01/21 03:31:58;;;;;;;52.63;15.63;;;-0.60;98.80;;;;;;4972512;28;20050;-93
2023/01/21 03:34:29;;;;;;;69.70;18.38;;;-0.60;98.80;;;;;;4973186;28;20603;-94
2023/01/21 03:37:07;;;;;;;59.90;18.48;;;-0.60;98.70;;;;;;4977990;28;20531;-93
2023/01/21 03:39:46;;;;;;;59.47;16.20;;;-0.60;98.90;;;;;;4975329;28;20956;-94
2023/01/21 03:42:13;;;;;;;62.35;16.73;;;-0.60;98.80;;;;;;4989936;28;20050;-96
2023/01/21 03:44:41;;;;;;;56.92;16.83;;;-0.60;98.90;;;;;;4982242;28;20070;-94
2023/01/21 03:47:27;;;;;;;53.83;17.77;;;-0.50;98.90;;;;;;4980376;28;20089;-96
2023/01/21 03:50:00;;;;;;;54.80;15.35;;;-0.60;98.90;;;;;;4978153;28;20133;-95
2023/01/21 03:52:28;;;;;;;61.85;17.08;;;-0.60;98.90;;;;;;4978447;28;20518;-95
2023/01/21 03:54:55;;;;;;;61.40;18.15;;;-0.60;98.90;;;;;;4979192;28;20130;-94
2023/01/21 03:57:22;;;;;;;52.40;17.00;;;-0.60;99.00;;;;;;4980184;28;20051;-94
2023/01/21 03:59:49;;;;;;;52.72;16.95;;;-0.60;99.10;;;;;;4985486;28;20140;-92
2023/01/21 04:02:19;;;;;;;60.55;16.63;;;-0.60;99.10;;;;;;4982291;28;20457;-93
2023/01/21 04:04:47;;;;;;;62.05;16.67;;;-0.60;99.10;;;;;;4979175;28;20043;-94
2023/01/21 04:07:15;;;;;;;54.80;16.38;;;-0.60;99.00;;;;;;4985701;28;20049;-93
2023/01/21 04:09:42;;;;;;;53.03;15.55;;;-0.60;99.10;;;;;;4983588;28;20403;-93
2023/01/21 04:12:10;;;;;;;57.45;17.25;;;-0.60;99.10;;;;;;4982402;28;20062;-93
2023/01/21 04:14:37;;;;;;;55.35;16.50;;;-0.60;99.10;;;;;;4986704;28;20050;-93
2023/01/21 04:17:04;;;;;;;51.35;17.30;;;-0.60;99.20;;;;;;4983433;28;20082;-92
2023/01/21 04:19:31;;;;;;;59.45;17.25;;;-0.60;99.30;;;;;;4997554;28;20531;-94
2023/01/21 04:21:58;;;;;;;55.50;18.42;;;-0.60;99.40;;;;;;4990475;28;20440;-94
2023/01/21 04:24:25;;;;;;;63.92;17.50;;;-0.60;99.30;;;;;;4978427;28;20039;-93
2023/01/21 04:26:52;;;;;;;52.22;16.55;;;-0.60;99.20;;;;;;4977944;28;20050;-92
2023/01/21 04:29:20;;;;;;;58.67;18.33;;;-0.60;99.00;;;;;;4976241;28;20058;-92
2023/01/21 04:31:47;;;;;;;53.60;16.17;;;-0.60;99.20;;;;;;4976174;28;20051;-92
2023/01/21 04:34:15;;;;;;;61.72;17.60;;;-0.60;99.10;;;;;;4977298;28;20158;-91
2023/01/21 04:36:42;;;;;;;64.20;17.77;;;-0.60;99.20;;;;;;4979139;28;20076;-92
2023/01/21 04:39:10;;;;;;;61.55;17.05;;;-0.60;99.10;;;;;;4972539;28;20050;-92
2023/01/21 04:41:37;;;;;;;58.83;17.70;;;-0.60;99.20;;;;;;4977137;28;20050;-93
2023/01/21 04:44:06;;;;;;;50.72;16.73;;;-0.60;99.00;;;;;;4986104;28;20451;-92
2023/01/21 04:46:33;;;;;;;71.97;18.67;;;-0.60;99.20;;;;;;4980641;28;20046;-92
2023/01/21 04:49:00;;;;;;;57.00;16.05;;;-0.70;99.20;;;;;;4977790;28;20042;-92
2023/01/21 04:51:27;;;;;;;57.78;17.50;;;-0.80;99.40;;;;;;4964902;28;20541;-91
2023/01/21 04:53:54;;;;;;;60.42;17.42;;;-0.80;99.30;;;;;;4977104;28;20051;-91
2023/01/21 04:56:21;;;;;;;48.15;14.40;;;-0.90;99.40;;;;;;4977552;28;20534;-92
2023/01/21 04:58:48;;;;;;;59.80;18.17;;;-0.90;99.30;;;;;;4983336;28;20055;-92
2023/01/21 05:01:15;;;;;;;59.05;16.77;;;-1.00;99.20;;;;;;4975493;28;20046;-92
2023/01/21 05:03:42;;;;;;;60.72;16.10;;;-1.10;99.10;;;;;;4976625;28;20255;-91
2023/01/21 05:06:09;;;;;;;54.90;16.38;;;-1.20;99.50;;;;;;4969609;28;20050;-91
2023/01/21 05:08:36;;;;;;;47.58;16.55;;;-1.30;99.40;;;;;;4973181;28;20122;-91
2023/01/21 05:11:08;;;;;;;58.47;16.58;;;-1.30;99.90;;;;;;4987839;28;20422;-94
2023/01/21 05:13:36;;;;;;;59.97;16.40;;;-1.30;99.80;;;;;;4982799;28;20055;-93
2023/01/21 05:16:07;;;;;;;59.08;16.10;;;-1.30;100.00;;;;;;4976483;28;20066;-93
2023/01/21 05:18:35;;;;;;;62.28;16.92;;;-1.30;100.00;;;;;;4954161;28;20039;-93
2023/01/21 05:21:03;;;;;;;58.10;17.75;;;-1.30;100.00;;;;;;4984363;28;20081;-92
2023/01/21 05:23:31;;;;;;;66.20;17.65;;;-1.30;100.00;;;;;;4983305;28;20047;-93
2023/01/21 05:25:58;;;;;;;60.70;17.92;;;-1.20;100.00;;;;;;4979630;28;20059;-93
2023/01/21 05:28:28;;;;;;;78.85;19.33;;;-1.20;100.00;;;;;;4980747;28;20496;-92
2023/01/21 05:31:01;;;;;;;65.00;16.05;;;-1.10;100.00;;;;;;4994630;28;20054;-93
2023/01/21 05:33:33;;;;;;;57.90;16.63;;;-1.10;100.00;;;;;;4978607;28;20054;-92
2023/01/21 05:36:01;;;;;;;63.40;18.42;;;-1.00;100.00;;;;;;4977780;28;20274;-93
2023/01/21 05:38:28;;;;;;;67.43;18.73;;;-1.00;100.00;;;;;;4977368;28;20067;-93
2023/01/21 05:41:00;;;;;;;71.22;18.00;;;-1.00;100.00;;;;;;4977266;28;20061;-93
2023/01/21 05:43:27;;;;;;;57.15;16.70;;;-0.90;100.00;;;;;;4984573;28;20133;-93
2023/01/21 05:45:54;;;;;;;67.03;18.00;;;-0.90;100.00;;;;;;4981196;28;20412;-93
2023/01/21 05:48:22;;;;;;;69.55;18.30;;;-0.90;100.00;;;;;;4987325;28;20055;-92
2023/01/21 05:50:49;;;;;;;55.80;17.05;;;-0.90;100.00;;;;;;4984317;28;20070;-93
2023/01/21 05:53:17;;;;;;;62.22;18.58;;;-0.90;100.00;;;;;;4979409;28;20526;-93
2023/01/21 05:55:44;;;;;;;66.47;18.13;;;-0.80;100.00;;;;;;4981360;28;20050;-92
2023/01/21 05:58:10;;;;;;;58.28;16.98;;;-0.80;100.00;;;;;;4977829;28;20491;-92
2023/01/21 06:00:37;;;;;;;54.20;16.05;;;-0.80;100.00;;;;;;4980085;28;20118;-93
2023/01/21 06:03:04;;;;;;;73.15;18.20;;;-0.80;100.00;;;;;;4983146;28;20097;-93
2023/01/21 06:05:31;;;;;;;59.65;17.25;;;-0.80;100.00;;;;;;4976219;28;20142;-92
2023/01/21 06:07:59;;;;;;;59.22;16.55;;;-0.70;100.00;;;;;;4981835;28;20046;-94
2023/01/21 06:10:27;;;;;;;60.65;16.63;;;-0.70;100.00;;;;;;4981735;28;20046;-93
2023/01/21 06:12:54;;;;;;;58.42;18.17;;;-0.70;100.00;;;;;;4979117;28;20055;-94
2023/01/21 06:15:21;;;;;;;64.30;17.23;;;-0.70;100.00;;;;;;4981875;28;20048;-93
2023/01/21 06:17:48;;;;;;;67.47;18.42;;;-0.70;100.00;;;;;;4979017;28;20050;-94
2023/01/21 06:20:18;;;;;;;69.38;18.88;;;-0.70;100.00;;;;;;4974511;28;20109;-94
2023/01/21 06:22:48;;;;;;;53.38;16.88;;;-0.70;100.00;;;;;;4975864;28;20097;-93
2023/01/21 06:25:18;;;;;;;75.65;20.23;;;-0.70;99.80;;;;;;4973807;28;20489;-92
2023/01/21 06:27:44;;;;;;;67.72;19.15;;;-0.70;99.90;;;;;;4970234;28;20046;-91
2023/01/21 06:30:11;;;;;;;84.43;24.52;;;-0.70;99.90;;;;;;4978003;28;20145;-92
2023/01/21 06:32:38;;;;;;;86.75;25.92;;;-0.70;100.00;;;;;;4976732;28;20051;-92
2023/01/21 06:35:05;;;;;;;106.97;30.77;;;-0.70;100.00;;;;;;4977281;28;20180;-92
2023/01/21 06:37:33;;;;;;;91.53;28.75;;;-0.70;99.90;;;;;;4989076;28;20313;-92
2023/01/21 06:40:00;;;;;;;97.70;29.65;;;-0.60;99.90;;;;;;4969404;28;20972;-93
2023/01/21 06:42:27;;;;;;;81.45;25.85;;;-0.60;100.00;;;;;;4968914;28;20043;-95
2023/01/21 06:44:54;;;;;;;71.43;22.33;;;-0.60;100.00;;;;;;4968676;28;20051;-94
2023/01/21 06:47:21;;;;;;;83.63;25.63;;;-0.60;100.00;;;;;;4974301;28;20086;-93
2023/01/21 06:49:48;;;;;;;74.97;24.05;;;-0.50;99.90;;;;;;4988276;28;20085;-93
2023/01/21 06:52:16;;;;;;;69.15;20.10;;;-0.50;100.00;;;;;;4979324;28;20085;-95
2023/01/21 06:54:43;;;;;;;76.80;18.50;;;-0.50;99.80;;;;;;4977289;28;20139;-95
2023/01/21 06:57:10;;;;;;;73.22;19.77;;;-0.50;99.90;;;;;;4989760;28;20086;-94
2023/01/21 06:59:38;;;;;;;63.70;19.30;;;-0.50;99.90;;;;;;4981121;28;20055;-95
2023/01/21 07:02:06;;;;;;;59.35;19.08;;;-0.50;100.00;;;;;;5000318;23;20134;-78
2023/01/21 07:04:33;;;;;;;63.38;18.45;;;-0.50;100.00;;;;;;4961946;28;20603;-77
2023/01/21 07:07:00;;;;;;;74.90;19.33;;;-0.60;99.90;;;;;;4964406;28;20623;-78
2023/01/21 07:09:27;;;;;;;67.25;19.80;;;-0.60;100.00;;;;;;4967747;28;20043;-78
2023/01/21 07:11:54;;;;;;;76.72;20.67;;;-0.70;100.00;;;;;;4965976;28;20061;-79
2023/01/21 07:14:21;;;;;;;70.25;19.98;;;-0.70;100.00;;;;;;4965758;28;20050;-78
2023/01/21 07:16:48;;;;;;;65.25;19.42;;;-0.70;100.00;;;;;;4965664;28;20046;-77
2023/01/21 07:19:15;;;;;;;61.55;17.15;;;-0.70;100.00;;;;;;4959653;28;20058;-78
2023/01/21 07:21:42;;;;;;;63.88;19.17;;;-0.80;100.00;;;;;;4966417;28;20074;-78
2023/01/21 07:24:08;;;;;;;76.10;20.40;;;-0.90;100.00;;;;;;4966202;28;20046;-78
2023/01/21 07:26:36;;;;;;;63.58;18.67;;;-0.90;100.00;;;;;;4978131;28;20035;-78
2023/01/21 07:29:05;;;;;;;56.42;18.15;;;-0.90;100.00;;;;;;4964870;28;20423;-78
2023/01/21 07:31:32;;;;;;;64.88;20.30;;;-1.00;100.00;;;;;;4968570;28;20377;-78
2023/01/21 07:33:59;;;;;;;64.30;19.23;;;-1.00;100.00;;;;;;4964173;28;20519;-80
2023/01/21 07:36:27;;;;;;;69.45;21.35;;;-1.00;100.00;;;;;;4955626;28;20055;-78
2023/01/21 07:38:54;;;;;;;69.47;21.52;;;-1.10;100.00;;;;;;4959140;28;20380;-78
2023/01/21 07:41:21;;;;;;;67.45;22.42;;;-1.10;100.00;;;;;;4966422;28;20050;-78
2023/01/21 07:43:48;;;;;;;79.78;20.38;;;-1.20;100.00;;;;;;4967570;28;20061;-78
2023/01/21 07:46:20;;;;;;;71.13;20.25;;;-1.20;100.00;;;;;;4969784;28;20146;-78
2023/01/21 07:48:47;;;;;;;72.05;21.48;;;-1.20;100.00;;;;;;4972916;28;20056;-79
2023/01/21 07:51:14;;;;;;;76.28;20.52;;;-1.20;100.00;;;;;;4972183;28;20480;-78
2023/01/21 07:53:41;;;;;;;82.07;25.30;;;-1.10;100.00;;;;;;4976167;28;20063;-79
2023/01/21 07:56:09;;;;;;;91.00;26.00;;;-1.00;100.00;;;;;;4972392;28;20063;-79
2023/01/21 07:58:37;;;;;;;77.20;24.67;;;-0.90;100.00;;;;;;4970214;28;20043;-78
2023/01/21 08:01:08;;;;;;;82.85;24.83;;;-0.80;100.00;;;;;;4967728;28;20059;-78
2023/01/21 08:03:36;;;;;;;93.75;25.95;;;-0.80;100.00;;;;;;4969663;28;20050;-79
2023/01/21 08:06:04;;;;;;;85.10;24.85;;;-0.70;100.00;;;;;;4967782;28;20061;-78
2023/01/21 08:08:32;;;;;;;81.00;24.65;;;-0.60;100.00;;;;;;4971465;28;20097;-78
2023/01/21 08:10:59;;;;;;;96.82;30.90;;;-0.50;100.00;;;;;;4964731;28;20063;-79
2023/01/21 08:13:26;;;;;;;110.55;31.83;;;-0.40;100.00;;;;;;4962791;28;20090;-79
2023/01/21 08:15:55;;;;;;;87.35;25.65;;;-0.40;100.00;;;;;;4967402;28;20813;-80
2023/01/21 08:18:23;;;;;;;91.85;25.67;;;-0.30;100.00;;;;;;4973176;28;20102;-78
2023/01/21 08:20:57;;;;;;;93.43;24.27;;;-0.20;100.00;;;;;;4963108;28;20115;-78
2023/01/21 08:23:27;;;;;;;101.10;26.47;;;-0.10;100.00;;;;;;4967521;28;20054;-80
2023/01/21 08:25:54;;;;;;;86.35;25.92;;;0.00;100.00;;;;;;4965380;28;20050;-78
2023/01/21 08:28:23;;;;;;;93.40;26.40;;;0.00;100.00;;;;;;4964139;28;20079;-78
2023/01/21 08:30:50;;;;;;;82.38;26.38;;;0.00;100.00;;;;;;4965516;28;20059;-80
2023/01/21 08:33:17;;;;;;;80.40;24.83;;;0.10;100.00;;;;;;4961191;28;20066;-78
2023/01/21 08:35:43;;;;;;;76.13;24.42;;;0.20;100.00;;;;;;4954767;28;20067;-78
2023/01/21 08:38:10;;;;;;;85.45;25.98;;;0.30;100.00;;;;;;4955468;28;20054;-78
2023/01/21 08:40:37;;;;;;;81.65;24.17;;;0.30;100.00;;;;;;4955517;28;20054;-78
2023/01/21 08:43:06;;;;;;;82.10;25.75;;;0.40;100.00;;;;;;4957283;28;20061;-78
2023/01/21 08:45:33;;;;;;;80.18;23.52;;;0.50;100.00;;;;;;4960618;28;20431;-78
2023/01/21 08:48:02;;;;;;;79.18;21.95;;;0.60;100.00;;;;;;4962855;28;20134;-78
2023/01/21 08:50:29;;;;;;;84.00;23.38;;;0.70;100.00;;;;;;4958317;28;20511;-78
2023/01/21 08:52:56;;;;;;;89.25;25.83;;;0.70;100.00;;;;;;4957618;28;20066;-78
2023/01/21 08:55:27;;;;;;;99.65;29.27;;;0.80;100.00;;;;;;4960041;28;20061;-78
2023/01/21 08:57:54;;;;;;;89.65;27.73;;;0.80;100.00;;;;;;4963297;28;20141;-78
2023/01/21 09:00:22;;;;;;;86.28;26.45;;;0.90;100.00;;;;;;4960363;28;20050;-78
2023/01/21 09:02:50;;;;;;;85.28;26.45;;;0.90;100.00;;;;;;4963683;28;20073;-78
2023/01/21 09:05:17;;;;;;;77.25;22.35;;;1.00;100.00;;;;;;4962740;28;20074;-78
2023/01/21 09:07:45;;;;;;;77.38;25.00;;;1.10;100.00;;;;;;4955785;28;20090;-78
2023/01/21 09:10:59;;;;;;;75.20;21.05;;;1.20;99.70;;;;;;4956370;28;20476;-79
2023/01/21 09:13:06;;;;;;;71.45;20.92;;;1.30;99.30;;;;;;4961163;28;20058;-78
2023/01/21 09:15:40;;;;;;;73.17;22.60;;;1.40;98.60;;;;;;4958349;28;20057;-78
2023/01/21 09:18:07;;;;;;;78.05;22.80;;;1.40;98.20;;;;;;4960769;28;20068;-78
2023/01/21 09:20:34;;;;;;;73.25;20.75;;;1.50;98.00;;;;;;4960394;28;20630;-78
2023/01/21 09:23:22;;;;;;;61.55;20.70;;;1.50;97.90;;;;;;4961802;28;20406;-78
2023/01/21 09:25:54;;;;;;;77.05;21.95;;;1.60;97.60;;;;;;4963003;28;20051;-78
2023/01/21 09:28:22;;;;;;;62.72;19.38;;;1.60;97.50;;;;;;4962951;28;20050;-77
2023/01/21 09:30:54;;;;;;;64.70;19.70;;;1.70;97.00;;;;;;4958930;28;20051;-78
2023/01/21 09:33:21;;;;;;;79.03;20.27;;;1.70;97.10;;;;;;4962080;28;20513;-77
2023/01/21 09:35:55;;;;;;;59.70;19.67;;;1.80;97.00;;;;;;4960244;28;20093;-78
2023/01/21 09:38:23;;;;;;;65.57;20.13;;;1.90;96.80;;;;;;4958581;28;20367;-77
2023/01/21 09:40:52;;;;;;;61.33;19.63;;;1.90;96.50;;;;;;4957975;28;20146;-78
2023/01/21 09:43:22;;;;;;;56.60;19.05;;;2.00;96.10;;;;;;4959665;28;20062;-78
2023/01/21 09:45:52;;;;;;;57.80;18.98;;;2.00;95.40;;;;;;4959175;28;20043;-78
2023/01/21 09:48:35;;;;;;;65.30;18.35;;;2.00;95.70;;;;;;4962513;28;20051;-77
2023/01/21 09:51:06;;;;;;;51.78;18.55;;;2.10;95.70;;;;;;4958099;28;20061;-77
2023/01/21 09:53:49;;;;;;;55.00;17.42;;;2.30;95.50;;;;;;4956303;28;20472;-77
2023/01/21 09:56:43;;;;;;;51.80;17.08;;;2.50;94.40;;;;;;4957412;28;20149;-77
2023/01/21 09:59:22;;;;;;;51.17;17.52;;;2.40;92.90;;;;;;4957155;28;20050;-77
2023/01/21 10:01:51;;;;;;;56.28;19.38;;;2.40;92.90;;;;;;4960392;28;20047;-78
2023/01/21 10:04:51;;;;;;;50.72;16.98;;;2.40;93.00;;;;;;4960565;28;20408;-78
2023/01/21 10:07:29;;;;;;;46.20;14.80;;;2.30;94.10;;;;;;4960213;28;20134;-78
2023/01/21 10:09:59;;;;;;;46.30;16.48;;;2.50;94.80;;;;;;4957171;28;20062;-77
2023/01/21 10:13:02;;;;;;;41.63;15.43;;;2.90;93.20;;;;;;4951817;28;20069;-79
2023/01/21 10:15:28;;;;;;;38.72;14.23;;;3.20;91.50;;;;;;4949746;28;20487;-79
2023/01/21 10:18:00;;;;;;;36.72;12.10;;;3.30;90.50;;;;;;4952527;28;20065;-79
2023/01/21 10:20:36;;;;;;;31.33;11.57;;;3.30;89.70;;;;;;4953296;28;20046;-79
2023/01/21 10:23:13;;;;;;;28.63;11.65;;;3.60;88.80;;;;;;4954518;28;20133;-79
2023/01/21 10:25:40;;;;;;;32.40;11.70;;;4.00;88.00;;;;;;4959150;28;20062;-80
2023/01/21 10:28:16;;;;;;;31.15;11.13;;;4.20;86.20;;;;;;4952230;28;20066;-79
2023/01/21 10:30:46;;;;;;;25.15;10.30;;;4.40;85.30;;;;;;4950151;28;20051;-79
2023/01/21 10:33:22;;;;;;;26.60;8.82;;;4.10;83.10;;;;;;4950444;28;20144;-79
2023/01/21 10:36:17;;;;;;;20.77;8.27;;;4.00;85.40;;;;;;4947360;28;20147;-78
2023/01/21 10:39:07;;;;;;;22.80;9.57;;;3.90;86.10;;;;;;4951183;28;20061;-82
2023/01/21 10:41:34;;;;;;;20.67;8.90;;;4.10;85.30;;;;;;4950520;28;20061;-79
2023/01/21 10:44:35;;;;;;;22.45;8.75;;;4.20;85.90;;;;;;4951599;28;21107;-80
2023/01/21 10:47:13;;;;;;;19.20;8.15;;;4.40;84.20;;;;;;4955297;28;20054;-79
2023/01/21 10:49:57;;;;;;;23.35;9.95;;;4.30;84.70;;;;;;4958840;28;20051;-79
2023/01/21 10:52:44;;;;;;;20.38;8.15;;;4.30;85.30;;;;;;4957759;28;20532;-79
2023/01/21 10:55:38;;;;;;;20.17;8.07;;;4.20;85.40;;;;;;4962890;28;20069;-79
2023/01/21 10:58:29;;;;;;;15.17;7.03;;;4.10;86.10;;;;;;4959512;28;20074;-79
2023/01/21 11:01:00;;;;;;;17.48;6.80;;;4.10;86.80;;;;;;4959357;28;20061;-79
2023/01/21 11:03:40;;;;;;;13.50;6.13;;;4.30;87.60;;;;;;4952891;28;20062;-79
2023/01/21 11:06:13;;;;;;;11.05;5.95;;;4.60;85.20;;;;;;4945502;28;21219;-78
2023/01/21 11:08:43;;;;;;;11.82;4.88;;;4.70;83.50;;;;;;4949666;28;20051;-79
2023/01/21 11:11:12;;;;;;;12.88;6.28;;;4.60;84.60;;;;;;4951240;28;20061;-79
2023/01/21 11:13:40;;;;;;;13.68;5.68;;;4.40;85.20;;;;;;4954058;28;20062;-78
2023/01/21 11:16:07;;;;;;;15.13;5.90;;;4.40;86.80;;;;;;4955664;28;20050;-78
2023/01/21 11:18:38;;;;;;;15.95;6.50;;;4.30;86.70;;;;;;4958279;28;20054;-79
2023/01/21 11:21:23;;;;;;;11.98;6.03;;;4.40;87.30;;;;;;4962429;28;20051;-78
2023/01/21 11:24:17;;;;;;;11.40;5.43;;;4.70;85.80;;;;;;4962960;28;20500;-78
2023/01/21 11:26:59;;;;;;;11.23;5.18;;;4.80;85.60;;;;;;4966656;28;20057;-79
2023/01/21 11:29:37;;;;;;;12.77;5.68;;;4.90;85.10;;;;;;4968565;28;20051;-78
2023/01/21 11:32:18;;;;;;;11.27;5.65;;;4.80;83.80;;;;;;4965534;28;20531;-78
2023/01/21 11:34:48;;;;;;;15.02;5.55;;;4.70;84.20;;;;;;4964429;28;20051;-79
2023/01/21 11:37:21;;;;;;;10.95;4.97;;;4.60;84.00;;;;;;4958935;28;20070;-78
2023/01/21 11:40:09;;;;;;;13.27;5.07;;;4.40;84.20;;;;;;4966441;28;20069;-78
2023/01/21 11:42:55;;;;;;;10.98;4.75;;;4.30;85.60;;;;;;4959105;28;20444;-78
2023/01/21 11:45:28;;;;;;;9.73;5.30;;;4.20;86.60;;;;;;4956753;28;20133;-78
2023/01/21 11:47:56;;;;;;;9.93;4.45;;;4.20;86.70;;;;;;4961823;28;20643;-78
2023/01/21 11:50:26;;;;;;;10.13;5.50;;;4.10;86.20;;;;;;4966753;28;20062;-78
2023/01/21 11:53:14;;;;;;;15.15;6.22;;;3.90;87.30;;;;;;4962783;28;20055;-79
2023/01/21 11:55:46;;;;;;;17.95;6.32;;;3.90;87.50;;;;;;4963845;28;20507;-79
2023/01/21 11:58:27;;;;;;;12.65;5.70;;;3.80;87.90;;;;;;4960776;28;20051;-78
2023/01/21 12:00:59;;;;;;;13.02;4.90;;;3.70;88.20;;;;;;4967786;28;20050;-79
2023/01/21 12:03:39;;;;;;;15.13;5.65;;;3.70;89.50;;;;;;4966944;28;20817;-79
2023/01/21 12:06:07;;;;;;;12.80;6.13;;;3.50;89.70;;;;;;4956222;28;20094;-75
2023/01/21 12:08:37;;;;;;;12.43;5.50;;;3.40;90.80;;;;;;4953470;28;20316;-75
2023/01/21 12:11:06;;;;;;;12.35;5.90;;;3.40;90.70;;;;;;4955842;28;20069;-75
2023/01/21 12:14:11;;;;;;;15.73;6.05;;;3.40;91.10;;;;;;4953738;28;20054;-76
2023/01/21 12:17:32;;;;;;;11.07;5.95;;;3.40;91.40;;;;;;4939129;28;20062;-76
2023/01/21 12:20:14;;;;;;;14.82;5.60;;;3.60;91.80;;;;;;4895626;29;20052;-76
2023/01/21 12:23:15;;;;;;;14.07;7.03;;;3.70;91.00;;;;;;4960455;28;20053;-74
2023/01/21 12:25:52;;;;;;;21.85;8.52;;;3.80;90.60;;;;;;4959776;28;20441;-76
2023/01/21 12:28:39;;;;;;;15.90;6.82;;;3.90;90.20;;;;;;4956552;28;20146;-76
2023/01/21 12:31:31;;;;;;;14.98;7.20;;;3.90;89.80;;;;;;4975979;28;20145;-75
2023/01/21 12:34:29;;;;;;;19.08;7.47;;;3.90;89.30;;;;;;4956438;28;20077;-76
2023/01/21 12:37:30;;;;;;;16.40;7.97;;;3.90;88.20;;;;;;4971221;28;20061;-76
2023/01/21 12:40:00;;;;;;;16.80;7.35;;;3.80;87.30;;;;;;4958287;28;20062;-76
2023/01/21 12:42:36;;;;;;;17.17;7.75;;;3.80;87.20;;;;;;4957143;28;20054;-75
2023/01/21 12:45:14;;;;;;;12.70;6.68;;;3.80;87.80;;;;;;4957664;28;20054;-75
2023/01/21 12:47:45;;;;;;;15.65;6.75;;;3.90;87.40;;;;;;4957097;28;20115;-75
2023/01/21 12:50:25;;;;;;;15.80;6.50;;;3.90;86.80;;;;;;4955677;28;20412;-75
2023/01/21 12:53:13;;;;;;;18.65;7.88;;;3.90;85.40;;;;;;4946310;28;20050;-76
2023/01/21 12:56:08;;;;;;;16.83;6.63;;;3.80;85.70;;;;;;4953936;28;20404;-75
2023/01/21 12:58:43;;;;;;;21.42;8.15;;;3.80;85.90;;;;;;4954583;28;20065;-76
2023/01/21 13:01:15;;;;;;;13.70;6.50;;;3.70;86.10;;;;;;4952638;28;20129;-76
2023/01/21 13:03:58;;;;;;;17.42;7.75;;;3.60;86.00;;;;;;4961322;28;20043;-75
2023/01/21 13:06:35;;;;;;;19.20;6.57;;;3.60;86.10;;;;;;4956172;28;20057;-75